Delhi, Canada
Current Conditions -  °F | °C
As of 10:00 AM on Friday 31 Oct 2014 (Local Time) from CYXU Reporting Station
Light Rain Light Rain  
Wind Chill: 36°   Ceiling: 2800
Heat Index: 41°   Visibility: 8mi
Dew Point: 41°   Wind: 8mph
Humidity: 100%   Direction: 130°SE
Pressure: 29.9"   Gusts: NA
Location:  42.85°N, 80.49°W
Report Text: CYXU 311400Z 13007KT 8SM -RA OVC028 05/05 A2990 RMK NS8 SLP133
Loading
Personal Weather Stations






























Interactive Weather Map New forecast layout! Learn more

10-Day Weather Forecast

Advertisements
Track Severe Weather on mobile